createdAt,value
2018-07-04T00:02:36.721Z,74.50
2018-07-04T00:06:18.341Z,74.77
2018-07-04T00:10:00.223Z,74.80
2018-07-04T00:13:42.128Z,75.95
2018-07-04T00:17:23.920Z,76.38
2018-07-04T00:21:05.670Z,75.61
2018-07-04T00:24:47.393Z,76.55
2018-07-04T00:28:29.328Z,75.16
2018-07-04T00:32:11.082Z,75.75
2018-07-04T00:35:52.683Z,75.25
2018-07-04T00:39:28.418Z,75.54
2018-07-04T00:43:10.171Z,75.80
2018-07-04T00:46:45.917Z,73.95
2018-07-04T00:50:27.677Z,75.81
2018-07-04T00:54:09.499Z,75.18
2018-07-04T00:57:51.265Z,78.16
2018-07-04T01:01:33.087Z,78.63
2018-07-04T01:05:08.911Z,79.07
2018-07-04T01:08:50.823Z,78.77
2018-07-04T01:12:32.553Z,79.10
2018-07-04T01:16:14.325Z,81.48
2018-07-04T01:19:56.217Z,81.72
2018-07-04T01:23:38.044Z,83.13
2018-07-04T01:27:19.713Z,83.04
2018-07-04T01:31:01.446Z,81.93
2018-07-04T01:34:43.724Z,83.97
2018-07-04T01:38:25.254Z,83.27
2018-07-04T01:42:08.170Z,82.64
2018-07-04T01:45:49.938Z,84.11
2018-07-04T01:49:32.030Z,84.97
2018-07-04T01:53:13.741Z,82.82
2018-07-04T01:56:55.441Z,83.42
2018-07-04T02:00:37.052Z,81.54
2018-07-04T02:04:18.786Z,80.88
2018-07-04T02:07:54.559Z,81.97
2018-07-04T02:11:37.312Z,82.35
2018-07-04T02:15:19.387Z,82.63
2018-07-04T02:19:01.130Z,83.29
2018-07-04T02:22:43.246Z,82.66
2018-07-04T02:26:24.962Z,82.83
2018-07-04T02:30:06.588Z,81.08
2018-07-04T02:33:48.490Z,81.90
2018-07-04T02:37:30.290Z,81.75
2018-07-04T02:41:11.974Z,82.49
2018-07-04T02:44:47.562Z,82.38
2018-07-04T02:48:29.414Z,83.21
2018-07-04T02:52:04.915Z,80.39
2018-07-04T02:55:47.033Z,78.77
2018-07-04T02:59:22.729Z,79.78
2018-07-04T03:03:04.374Z,80.61
2018-07-04T03:06:46.224Z,81.21
2018-07-04T03:10:28.120Z,80.82
2018-07-04T03:14:10.096Z,81.28
2018-07-04T03:17:51.924Z,80.25
2018-07-04T03:21:33.690Z,80.18
2018-07-04T03:25:15.524Z,80.12
2018-07-04T03:28:57.123Z,81.36
2018-07-04T03:32:38.998Z,80.54
2018-07-04T03:36:20.882Z,80.20
2018-07-04T03:39:56.833Z,80.96
2018-07-04T03:43:38.633Z,81.94
2018-07-04T03:47:20.539Z,83.10
2018-07-04T03:51:02.333Z,81.50
2018-07-04T03:54:43.937Z,80.93
2018-07-04T03:58:25.769Z,83.24
2018-07-04T04:02:07.871Z,81.63
2018-07-04T04:05:49.565Z,82.60
2018-07-04T04:09:31.281Z,84.12
2018-07-04T04:13:13.163Z,83.76
2018-07-04T04:16:54.793Z,83.43
2018-07-04T04:20:36.556Z,83.26
2018-07-04T04:24:18.440Z,83.13
2018-07-04T04:28:00.474Z,81.92
2018-07-04T04:31:42.059Z,83.04
2018-07-04T04:35:23.993Z,80.94
2018-07-04T04:39:05.989Z,80.09
2018-07-04T04:42:47.874Z,78.45
2018-07-04T04:46:29.697Z,80.38
2018-07-04T04:50:05.372Z,81.07
2018-07-04T04:53:47.045Z,79.59
2018-07-04T04:57:28.860Z,80.00
2018-07-04T05:01:10.712Z,79.86
2018-07-04T05:04:52.327Z,79.88
2018-07-04T05:08:34.254Z,78.47
2018-07-04T05:12:16.216Z,77.95
2018-07-04T05:15:58.131Z,77.88
2018-07-04T05:19:39.949Z,76.86
2018-07-04T05:23:21.815Z,75.37
2018-07-04T05:27:03.733Z,74.89
2018-07-04T05:30:45.468Z,74.70
2018-07-04T05:34:27.205Z,74.46
2018-07-04T05:38:03.255Z,73.49
2018-07-04T05:41:45.028Z,72.70
2018-07-04T05:45:28.296Z,73.07
2018-07-04T05:49:10.131Z,73.07
2018-07-04T05:52:51.803Z,72.34
2018-07-04T05:56:33.477Z,71.12
2018-07-04T06:00:15.386Z,71.68
2018-07-04T06:03:57.243Z,71.48
2018-07-04T06:07:39.366Z,72.40
2018-07-04T06:11:15.079Z,71.80
2018-07-04T06:14:56.962Z,73.22
2018-07-04T06:18:32.519Z,71.99
2018-07-04T06:22:14.463Z,72.57
2018-07-04T06:25:56.221Z,72.21
2018-07-04T06:29:38.105Z,72.55
2018-07-04T06:33:19.851Z,71.27
2018-07-04T06:37:01.838Z,70.35
2018-07-04T06:40:24.711Z,70.72
2018-07-04T06:43:47.624Z,71.32
2018-07-04T06:47:10.469Z,70.00
2018-07-04T06:50:33.359Z,69.00
2018-07-04T06:53:56.225Z,69.01
2018-07-04T06:57:20.157Z,67.68
2018-07-04T07:00:43.235Z,67.53
2018-07-04T07:04:25.106Z,67.19
2018-07-04T07:08:07.044Z,67.32
2018-07-04T07:11:48.641Z,66.47
2018-07-04T07:15:31.152Z,63.29
2018-07-04T07:19:14.432Z,63.52
2018-07-04T07:22:57.378Z,64.29
2018-07-04T07:26:39.682Z,62.92
2018-07-04T07:30:21.772Z,61.35
2018-07-04T07:33:57.768Z,60.93
2018-07-04T07:37:39.380Z,60.67
2018-07-04T07:41:21.279Z,61.00
2018-07-04T07:44:58.911Z,60.38
2018-07-04T07:48:40.918Z,59.32
2018-07-04T07:52:22.485Z,57.96
2018-07-04T07:55:58.110Z,57.00
2018-07-04T07:59:39.849Z,56.22
2018-07-04T08:03:23.013Z,56.73
2018-07-04T08:07:05.882Z,57.37
2018-07-04T08:10:47.667Z,57.54
2018-07-04T08:14:29.456Z,56.69
2018-07-04T08:18:12.139Z,56.92
2018-07-04T08:21:47.945Z,57.23
2018-07-04T08:25:30.072Z,56.58
2018-07-04T08:29:11.916Z,55.88
2018-07-04T08:32:53.848Z,56.03
2018-07-04T08:36:35.619Z,55.05
2018-07-04T08:40:17.475Z,55.02
2018-07-04T08:43:53.352Z,54.10
2018-07-04T08:47:35.276Z,54.06
2018-07-04T08:51:17.236Z,53.62
2018-07-04T08:54:52.525Z,52.40
2018-07-04T08:58:28.240Z,51.60
2018-07-04T09:02:10.984Z,51.88
2018-07-04T09:05:52.787Z,51.45
2018-07-04T09:09:34.417Z,51.11
2018-07-04T09:13:16.433Z,50.82
2018-07-04T09:16:58.143Z,50.00
2018-07-04T09:20:39.869Z,50.82
2018-07-04T09:24:21.741Z,52.15
2018-07-04T09:28:03.496Z,52.84
2018-07-04T09:31:45.179Z,49.79
2018-07-04T09:35:26.975Z,48.86
2018-07-04T09:39:08.620Z,50.08
2018-07-04T09:42:50.544Z,49.73
2018-07-04T09:46:32.719Z,50.46
2018-07-04T09:50:08.435Z,49.10
2018-07-04T09:53:50.339Z,46.66
2018-07-04T09:57:31.947Z,46.81
2018-07-04T10:01:19.365Z,47.53
2018-07-04T10:04:55.193Z,47.14
2018-07-04T10:08:37.194Z,46.44
2018-07-04T10:12:18.935Z,46.30
2018-07-04T10:16:00.799Z,46.91
2018-07-04T10:19:42.444Z,46.27
2018-07-04T10:23:24.420Z,46.71
2018-07-04T10:27:06.156Z,44.52
2018-07-04T10:30:47.691Z,44.22
2018-07-04T10:34:29.388Z,43.67
2018-07-04T10:38:11.383Z,44.83
2018-07-04T10:41:53.386Z,45.95
2018-07-04T10:45:35.229Z,45.41
2018-07-04T10:49:17.121Z,44.85
2018-07-04T10:52:52.633Z,45.23
2018-07-04T10:56:34.383Z,44.92
2018-07-04T11:00:16.449Z,44.43
2018-07-04T11:03:58.101Z,44.19
2018-07-04T11:07:39.774Z,40.63
2018-07-04T11:11:21.446Z,40.36
2018-07-04T11:15:03.108Z,39.38
2018-07-04T11:18:38.748Z,37.77
2018-07-04T11:22:20.633Z,37.22
2018-07-04T11:26:02.554Z,37.50
2018-07-04T11:29:44.282Z,36.66
2018-07-04T11:33:26.016Z,37.96
2018-07-04T11:37:07.714Z,41.43
2018-07-04T11:40:49.499Z,41.27
2018-07-04T11:44:31.277Z,39.55
2018-07-04T11:47:54.070Z,39.10
2018-07-04T11:51:16.971Z,38.33
2018-07-04T11:54:39.838Z,37.70
2018-07-04T11:58:02.707Z,37.11
2018-07-04T12:01:25.571Z,39.10
2018-07-04T12:05:07.495Z,38.74
2018-07-04T12:08:30.307Z,39.37
2018-07-04T12:11:53.273Z,41.82
2018-07-04T12:15:16.111Z,42.44
2018-07-04T12:18:38.942Z,40.83
2018-07-04T12:22:01.785Z,42.57
2018-07-04T12:25:24.630Z,40.85
2018-07-04T12:28:47.474Z,42.46
2018-07-04T12:32:10.346Z,41.51
2018-07-04T12:35:33.142Z,40.27
2018-07-04T12:38:55.991Z,39.75
2018-07-04T12:42:18.833Z,38.28
2018-07-04T12:45:41.642Z,38.45
2018-07-04T12:49:05.513Z,35.51
2018-07-04T12:52:28.347Z,42.62
2018-07-04T12:56:03.933Z,41.93
2018-07-04T12:59:46.007Z,40.97
2018-07-04T13:03:28.018Z,39.42
2018-07-04T13:07:09.764Z,38.23
2018-07-04T13:10:45.521Z,38.35
2018-07-04T13:14:21.207Z,39.05
2018-07-04T13:18:03.044Z,39.83
2018-07-04T13:21:45.073Z,39.10
2018-07-04T13:25:26.825Z,39.22
2018-07-04T13:29:08.645Z,39.31
2018-07-04T13:32:50.417Z,38.60
2018-07-04T13:36:32.189Z,38.62
2018-07-04T13:40:15.085Z,39.01
2018-07-04T13:43:56.992Z,38.44
2018-07-04T13:47:38.846Z,37.64
2018-07-04T13:51:20.662Z,36.57
2018-07-04T13:55:02.460Z,35.85
2018-07-04T13:58:44.433Z,35.62
2018-07-04T14:02:26.317Z,35.01
2018-07-04T14:06:09.478Z,34.24
2018-07-04T14:09:51.255Z,34.46
2018-07-04T14:13:33.018Z,33.09
2018-07-04T14:17:14.897Z,33.40
2018-07-04T14:20:56.585Z,32.71
2018-07-04T14:24:38.360Z,31.78
2018-07-04T14:28:20.256Z,32.44
2018-07-04T14:32:01.867Z,31.49
2018-07-04T14:35:43.679Z,31.69
2018-07-04T14:39:25.527Z,30.89
2018-07-04T14:43:07.485Z,31.38
2018-07-04T14:46:49.153Z,31.28
2018-07-04T14:50:30.799Z,30.17
2018-07-04T14:54:12.642Z,30.31
2018-07-04T14:57:54.381Z,29.65
2018-07-04T15:01:36.118Z,29.31
2018-07-04T15:05:11.724Z,28.55
2018-07-04T15:08:53.554Z,30.12
2018-07-04T15:12:29.245Z,29.06
2018-07-04T15:16:11.279Z,28.67
2018-07-04T15:19:53.139Z,28.12
2018-07-04T15:23:28.691Z,28.92
2018-07-04T15:27:10.685Z,29.60
2018-07-04T15:30:52.564Z,29.65
2018-07-04T15:34:34.449Z,29.01
2018-07-04T15:38:16.452Z,29.36
2018-07-04T15:41:57.996Z,28.61
2018-07-04T15:45:39.813Z,28.99
2018-07-04T15:49:21.805Z,29.09
2018-07-04T15:53:03.807Z,28.12
2018-07-04T15:56:45.721Z,28.96
2018-07-04T16:00:27.738Z,29.13
2018-07-04T16:04:09.505Z,27.78
2018-07-04T16:07:51.399Z,27.09
2018-07-04T16:11:33.288Z,28.10
2018-07-04T16:15:15.124Z,27.74
2018-07-04T16:18:50.774Z,28.03
2018-07-04T16:22:32.806Z,27.01
2018-07-04T16:26:14.705Z,27.13
2018-07-04T16:29:56.650Z,26.55
2018-07-04T16:33:38.378Z,27.05
2018-07-04T16:37:20.146Z,26.18
2018-07-04T16:41:02.209Z,25.88
2018-07-04T16:44:45.982Z,25.52
2018-07-04T16:48:27.868Z,27.28
2018-07-04T16:52:09.430Z,26.50
2018-07-04T16:55:51.195Z,26.76
2018-07-04T16:59:32.984Z,26.91
2018-07-04T17:03:14.684Z,28.48
2018-07-04T17:06:56.386Z,27.49
2018-07-04T17:10:38.071Z,28.45
2018-07-04T17:14:20.062Z,28.45
2018-07-04T17:17:56.875Z,28.70
2018-07-04T17:21:38.666Z,29.80
2018-07-04T17:25:20.564Z,28.55
2018-07-04T17:29:02.281Z,29.32
2018-07-04T17:32:44.271Z,29.63
2018-07-04T17:36:26.179Z,29.63
2018-07-04T17:40:07.926Z,30.58
2018-07-04T17:43:49.726Z,29.15
2018-07-04T17:47:32.359Z,30.06
2018-07-04T17:51:14.214Z,31.26
2018-07-04T17:54:56.342Z,30.32
2018-07-04T17:58:38.308Z,30.95
2018-07-04T18:02:20.355Z,30.68
2018-07-04T18:06:02.103Z,30.39
2018-07-04T18:09:44.018Z,37.02
2018-07-04T18:13:25.880Z,38.53
2018-07-04T18:17:07.575Z,39.32
2018-07-04T18:20:43.321Z,37.58
2018-07-04T18:24:25.092Z,38.18
2018-07-04T18:28:06.868Z,40.31
2018-07-04T18:31:42.363Z,40.77
2018-07-04T18:35:24.336Z,41.66
2018-07-04T18:39:06.102Z,40.52
2018-07-04T18:42:41.594Z,41.58
2018-07-04T18:46:17.533Z,41.38
2018-07-04T18:49:59.539Z,41.84
2018-07-04T18:53:41.394Z,43.78
2018-07-04T18:57:23.193Z,43.81
2018-07-04T19:01:05.401Z,44.60
2018-07-04T19:04:47.246Z,43.73
2018-07-04T19:08:28.967Z,44.72
2018-07-04T19:12:10.800Z,44.49
2018-07-04T19:15:52.728Z,44.99
2018-07-04T19:19:34.850Z,45.03
2018-07-04T19:23:16.754Z,44.92
2018-07-04T19:26:59.433Z,45.76
2018-07-04T19:30:41.338Z,45.70
2018-07-04T19:34:23.597Z,46.29
2018-07-04T19:38:05.396Z,46.77
2018-07-04T19:41:47.667Z,46.28
2018-07-04T19:45:29.372Z,47.85
2018-07-04T19:49:10.992Z,47.98
2018-07-04T19:52:52.702Z,47.10
2018-07-04T19:56:35.534Z,47.79
2018-07-04T20:00:17.351Z,47.46
2018-07-04T20:03:58.954Z,47.36
2018-07-04T20:07:40.858Z,47.59
2018-07-04T20:11:23.087Z,48.72
2018-07-04T20:15:05.025Z,48.51
2018-07-04T20:18:40.515Z,48.61
2018-07-04T20:22:22.232Z,48.85
2018-07-04T20:26:04.227Z,49.83
2018-07-04T20:29:46.235Z,51.44
2018-07-04T20:33:27.909Z,52.44
2018-07-04T20:37:10.133Z,53.20
2018-07-04T20:40:51.815Z,53.05
2018-07-04T20:44:33.756Z,53.05
2018-07-04T20:48:15.809Z,54.25
2018-07-04T20:51:57.614Z,54.51
2018-07-04T20:55:39.770Z,54.06
2018-07-04T20:59:21.652Z,54.68
2018-07-04T21:03:03.523Z,55.59
2018-07-04T21:06:45.565Z,55.41
2018-07-04T21:10:27.421Z,54.97
2018-07-04T21:14:09.054Z,56.57
2018-07-04T21:17:50.715Z,56.76
2018-07-04T21:21:32.371Z,56.87
2018-07-04T21:25:13.997Z,56.67
2018-07-04T21:28:55.840Z,56.46
2018-07-04T21:32:37.736Z,57.15
2018-07-04T21:36:19.526Z,57.68
2018-07-04T21:40:01.454Z,58.51
2018-07-04T21:43:43.225Z,59.04
2018-07-04T21:47:25.030Z,59.26
2018-07-04T21:51:07.323Z,58.68
2018-07-04T21:54:42.842Z,58.58
2018-07-04T21:58:24.558Z,57.93
2018-07-04T22:02:00.133Z,58.96
2018-07-04T22:05:42.451Z,58.87
2018-07-04T22:09:24.160Z,59.99
2018-07-04T22:13:06.170Z,59.46
2018-07-04T22:16:48.026Z,59.12
2018-07-04T22:20:30.750Z,59.71
2018-07-04T22:25:41.614Z,60.03
2018-07-04T22:29:23.406Z,60.94
2018-07-04T22:33:05.212Z,60.63
2018-07-04T22:36:46.883Z,61.56
2018-07-04T22:40:28.851Z,61.78
2018-07-04T22:44:10.695Z,61.28
2018-07-04T22:47:52.369Z,61.79
2018-07-04T22:51:33.891Z,61.57
2018-07-04T22:55:15.654Z,62.24
2018-07-04T22:58:57.229Z,63.76
2018-07-04T23:02:38.991Z,62.49
2018-07-04T23:06:20.710Z,60.79
2018-07-04T23:10:02.499Z,62.57
2018-07-04T23:13:44.250Z,63.09
2018-07-04T23:17:26.098Z,62.49
2018-07-04T23:21:07.881Z,62.42
2018-07-04T23:24:49.678Z,62.42
2018-07-04T23:28:31.456Z,63.89
2018-07-04T23:32:13.426Z,64.95
2018-07-04T23:35:49.091Z,63.21
2018-07-04T23:39:31.866Z,62.88
2018-07-04T23:43:13.789Z,62.25
2018-07-04T23:46:55.636Z,62.51
2018-07-04T23:50:37.513Z,64.09
2018-07-04T23:54:19.334Z,63.70
2018-07-04T23:58:01.053Z,64.85
